Weather observations for the past three days for
Mesa Vista Ranch AP
Imperial (Metric)
Date Time (cdt) Wind (mph) Vis. (mi.) Weather Sky Cond. Temperature (ºF) Relative Humidity Wind Chill (°F) Heat Index (°F) Pressure Precipitation (in)
Air Dwpt 6 hour altimeter (in) sea level (mb) 1 hr 3 hr 6 hr
Max. Min.
06 07:35 E 12 10.00 Overcast SCT012 OVC027 42.8 35.6 76% 37 30.06 0.0
06 07:15 NE 10 10.00 Overcast OVC027 42.8 35.6 76% 38 30.05 0.0
06 06:55 E 10 10.00 Overcast SCT017 OVC025 42.8 35.6 76% 38 30.04 0.0
06 06:35 E 10 10.00 Overcast OVC027 44.6 35.6 71% 40 30.02 0.0
06 06:15 E 10 10.00 Overcast OVC029 44.6 35.6 71% 40 30.01 0.0
06 05:55 E 10 10.00 Overcast OVC029 44.6 33.8 66% 40 30.01 0.0
06 05:35 E 7 10.00 Overcast OVC029 44.6 33.8 66% 41 30.02 0.0
06 05:15 E 10 10.00 Overcast OVC029 44.6 35.6 71% 40 30 0.0
06 04:55 E 12 10.00 Overcast OVC027 44.6 35.6 71% 39 29.99 0.0
06 04:35 E 12 G 16 10.00 Overcast OVC029 44.6 33.8 66% 39 29.98 0.0
06 04:15 E 7 10.00 Overcast OVC029 44.6 33.8 66% 41 29.99 0.0
06 03:55 NE 8 10.00 Overcast OVC029 44.6 33.8 66% 41 29.99 0.0
06 03:35 E 8 10.00 Mostly Cloudy BKN031 44.6 33.8 66% 41 29.98 0.0
06 03:15 E 14 G 26 10.00 Light Drizzle SCT011 SCT027 44.6 33.8 66% 39 29.95 0.0
06 02:55 E 9 10.00 Overcast OVC027 46.4 33.8 62% 42 30.02 0.0
06 02:35 E 14 G 21 10.00 Mostly Cloudy BKN027 46.4 33.8 62% 41 29.97 0.0
06 02:15 E 12 10.00 Mostly Cloudy BKN023 46.4 33.8 62% 42 29.98 0.0
06 01:55 E 14 G 18 10.00 Mostly Cloudy BKN021 46.4 35.6 66% 41 29.98 0.0
06 01:35 E 14 10.00 Mostly Cloudy BKN023 46.4 35.6 66% 41 29.98 0.0
06 01:15 E 12 10.00 Mostly Cloudy BKN025 46.4 35.6 66% 42 29.97 0.0
06 00:55 NE 12 10.00 Mostly Cloudy BKN025 46.4 35.6 66% 42 29.97 0.0
06 00:35 NE 12 G 17 10.00 Overcast OVC027 48.2 35.6 62% 44 29.97 0.0
06 00:15 NE 12 G 16 10.00 Overcast OVC029 48.2 35.6 62% 44 29.97 0.0
05 23:55 E 17 10.00 Overcast OVC031 48.2 35.6 62% 42 29.94 0.0
05 23:35 E 10 10.00 Overcast OVC031 50 35.6 58% 46 29.93 0.0
05 23:15 E 16 10.00 Overcast OVC031 50 35.6 58% 45 29.92 0.0
05 22:55 E 12 G 16 10.00 Overcast OVC031 50 35.6 58% 46 29.93 0.0
05 22:35 E 14 10.00 Mostly Cloudy BKN031 48.2 35.6 62% 43 29.92 0.0
05 22:15 NE 14 10.00 Partly Cloudy SCT031 50 33.8 54% 45 29.9 0.0
05 21:55 NE 13 10.00 Fair CLR 50 33.8 54% 46 29.89 0.0
05 21:35 NE 12 G 17 10.00 Fair CLR 50 33.8 54% 46 29.89 0.0
05 21:15 NE 10 10.00 Fair CLR 50 33.8 54% 46 29.9 0.0
05 20:55 NE 10 10.00 Fair CLR 50 33.8 54% 46 29.89 0.0
05 20:35 NE 13 10.00 Partly Cloudy SCT036 51.8 33.8 50% 29.88 0.0
05 20:15 E 16 G 20 10.00 Partly Cloudy SCT036 53.6 33.8 47% 29.87 0.0
05 19:55 NE 14 G 20 10.00 Partly Cloudy SCT034 55.4 33.8 44% 29.86 0.0
05 19:35 E 14 G 21 10.00 Partly Cloudy SCT034 55.4 33.8 44% 29.86 0.0
05 19:15 E 15 10.00 Partly Cloudy SCT034 53.6 33.8 47% 29.87 0.0
05 18:55 NE 14 10.00 Partly Cloudy SCT042 55.4 33.8 44% 29.86 0.0
05 18:35 E 13 10.00 Mostly Cloudy BKN045 55.4 33.8 44% 29.87 0.0
05 18:15 NE 12 G 16 10.00 Mostly Cloudy BKN043 55.4 33.8 44% 29.88 0.0
05 17:55 NE 9 10.00 Mostly Cloudy BKN041 55.4 32 41% 29.88 0.0
05 17:35 E 8 10.00 Mostly Cloudy BKN041 57.2 32 39% 29.87 0.0
05 17:15 E 9 10.00 Overcast OVC041 57.2 32 39% 29.87 0.0
05 16:55 NE 10 10.00 Overcast OVC041 57.2 32 39% 29.87 0.0
05 16:35 NE 8 G 18 10.00 Overcast OVC039 57.2 32 39% 29.88 0.0
05 16:15 NE 9 G 20 10.00 Overcast OVC037 57.2 32 39% 29.88 0.0
05 15:55 NE 10 G 22 10.00 Overcast OVC037 59 32 36% 29.87 0.0
05 15:35 NE 14 10.00 Overcast OVC035 59 32 36% 29.87 0.0
05 15:15 NE 13 10.00 Overcast OVC035 57.2 32 39% 29.88 0.0
05 14:55 NE 16 10.00 Overcast OVC037 57.2 32 39% 29.89 0.0
05 14:35 NE 12 10.00 Overcast OVC037 55.4 32 41% 29.9 0.0
05 14:15 NE 13 G 20 10.00 Overcast OVC037 55.4 32 41% 29.89 0.0
05 13:55 NE 16 G 21 10.00 Overcast OVC037 55.4 32 41% 29.89 0.0
05 13:35 NE 15 G 22 10.00 Overcast OVC037 55.4 32 41% 29.89 0.0
05 13:15 N 13 G 22 10.00 Overcast OVC037 55.4 32 41% 29.9 0.0
05 13:00 NE 16 10.00 Overcast OVC035 55.4 32 41% 29.9 0.0
05 12:35 N 17 G 23 10.00 Overcast OVC035 55.4 32 41% 29.89 0.0
05 12:15 NE 16 G 26 10.00 Overcast OVC035 55.4 32 41% 29.88 0.0
05 11:55 N 18 10.00 Overcast OVC035 55.4 32 41% 29.89 0.0
05 11:35 NE 16 G 23 10.00 Overcast OVC031 55.4 32 41% 29.89 0.0
05 11:15 N 18 G 26 10.00 Overcast OVC029 55.4 32 41% 29.87 0.0
05 10:55 NE 20 G 26 10.00 Overcast OVC029 53.6 32 44% 29.86 0.0
05 10:35 NE 21 G 29 10.00 Overcast and Breezy OVC031 53.6 32 44% 29.85 0.0
05 10:15 NE 18 G 25 10.00 Overcast OVC031 53.6 32 44% 29.85 0.0
05 09:55 NE 21 G 28 10.00 Overcast and Breezy OVC031 53.6 32 44% 29.85 0.0
05 09:35 NE 18 G 25 10.00 Overcast OVC031 53.6 32 44% 29.85 0.0
05 09:15 NE 18 G 24 10.00 Overcast OVC029 53.6 32 44% 29.84 0.0
05 08:55 NE 14 G 22 10.00 Overcast OVC029 53.6 32 44% 29.84 0.0
05 08:35 N 20 G 24 10.00 Overcast OVC029 53.6 32 44% 29.82 0.0
05 08:15 NE 20 G 26 10.00 Overcast OVC029 53.6 32 44% 29.8 0.0
05 07:55 NE 16 G 28 10.00 Overcast OVC029 55.4 32 41% 29.79 0.0
05 07:35 NE 23 G 32 10.00 Overcast and Breezy OVC029 55.4 32 41% 29.76 0.0
05 07:15 N 23 G 29 10.00 Overcast and Breezy OVC029 55.4 32 41% 29.75 0.0
05 06:55 N 20 G 26 10.00 Overcast OVC029 55.4 32 41% 29.74 0.0
05 06:35 N 18 G 26 10.00 Overcast OVC029 57.2 32 39% 29.74 0.0
05 06:15 N 18 G 29 10.00 Overcast OVC027 59 35.6 42% 29.73 0.0
05 05:55 N 23 G 26 10.00 Overcast and Breezy OVC027 60.8 37.4 42% 29.71 0.0
05 05:35 N 22 G 28 10.00 Partly Cloudy and Breezy SCT025 60.8 41 48% 29.7 0.0
05 05:15 N 15 G 24 10.00 Fair CLR 60.8 42.8 52% 29.69 0.0
05 04:55 N 16 G 22 10.00 Fair CLR 62.6 44.6 52% 29.67 0.0
05 04:35 N 16 G 21 10.00 Fair CLR 62.6 35.6 37% 29.63 0.0
05 04:15 NW 12 10.00 Fair CLR 64.4 28.4 26% 29.61 0.0
05 03:55 W 14 10.00 Fair CLR 68 23 18% 29.6 0.0
05 03:35 W 14 G 18 10.00 Fair CLR 71.6 21.2 15% 29.59 0.0
05 03:15 W 16 10.00 Fair CLR 71.6 21.2 15% 29.57 0.0
05 02:55 W 20 G 26 10.00 Fair CLR 73.4 21.2 14% 29.57 0.0
05 02:35 SW 17 G 24 10.00 Fair CLR 73.4 23 15% 29.57 0.0
05 02:15 SW 16 10.00 Fair CLR 71.6 24.8 17% 29.57 0.0
05 01:55 SW 10 10.00 Fair CLR 71.6 23 16% 29.58 0.0
05 01:35 SW 10 10.00 Fair CLR 69.8 23 17% 29.59 0.0
05 01:15 SW 10 10.00 Fair CLR 71.6 21.2 15% 29.59 0.0
05 00:55 W 7 10.00 Fair CLR 69.8 21.2 16% 29.59 0.0
05 00:35 SW 8 10.00 Fair CLR 69.8 21.2 16% 29.59 0.0
05 00:15 SW 9 10.00 Fair CLR 69.8 23 17% 29.59 0.0
04 23:55 SW 9 10.00 Fair CLR 69.8 23 17% 29.59 0.0
04 23:35 SW 9 10.00 Fair CLR 71.6 23 16% 29.59 0.0
04 23:15 SW 9 10.00 Fair CLR 71.6 24.8 17% 29.59 0.0
04 22:55 S 8 10.00 Fair CLR 73.4 26.6 17% 29.6 0.0
04 22:35 S 9 10.00 Fair CLR 69.8 28.4 21% 29.59 0.0
04 22:15 S 7 10.00 Fair CLR 69.8 28.4 21% 29.59 0.0
04 21:55 S 7 10.00 Fair CLR 71.6 28.4 20% 29.58 0.0
04 21:35 SW 6 10.00 Fair CLR 75.2 26.6 16% 76 29.58 0.0
04 21:15 W 7 10.00 Fair CLR 78.8 28.4 16% 78 29.58 0.0
04 20:55 W 8 10.00 Fair CLR 80.6 28.4 15% 79 29.57 0.0
04 20:35 SW 8 10.00 Fair CLR 80.6 28.4 15% 79 29.57 0.0
04 20:15 SW 6 10.00 Fair CLR 80.6 28.4 15% 79 29.57 0.0
04 19:55 W 5 10.00 Fair CLR 84.2 28.4 13% 81 29.58 0.0
04 19:35 W 9 10.00 Fair CLR 86 28.4 12% 83 29.58 0.0
04 19:15 W 13 10.00 Fair CLR 86 28.4 12% 83 29.59 0.0
04 18:55 W 13 10.00 Fair CLR 86 28.4 12% 83 29.6 0.0
04 18:35 W 18 G 24 10.00 Fair CLR 87.8 28.4 12% 84 29.6 0.0
04 18:15 W 18 G 24 10.00 Fair CLR 87.8 28.4 12% 84 29.6 0.0
04 17:55 W 17 10.00 Fair CLR 87.8 28.4 12% 84 29.61 0.0
04 17:35 W 15 G 25 10.00 NULL NULL 87.8 28.4 12% 84 29.61 0.0
04 10:55 W 9 10.00 Fair CLR 77 33.8 21% 77 29.75 0.0
04 10:35 W 13 G 17 10.00 Fair CLR 73.4 33.8 23% 29.75 0.0
04 10:15 W 16 10.00 Fair CLR 71.6 35.6 27% 29.75 0.0
04 09:55 W 17 10.00 Fair CLR 71.6 35.6 27% 29.75 0.0
04 09:35 SW 17 10.00 Fair CLR 69.8 37.4 31% 29.74 0.0
04 09:15 SW 14 10.00 Fair CLR 68 39.2 35% 29.75 0.0
04 08:55 SW 14 10.00 Fair CLR 64.4 41 43% 29.75 0.0
04 08:35 SW 14 10.00 Fair CLR 64.4 41 43% 29.75 0.0
04 08:15 SW 12 10.00 Fair CLR 62.6 42.8 49% 29.74 0.0
04 07:55 SW 10 10.00 Fair CLR 60.8 42.8 52% 29.74 0.0
04 07:35 SW 10 10.00 Fair CLR 59 41 51% 29.74 0.0
04 07:15 SW 13 10.00 Fair CLR 57.2 41 55% 29.73 0.0
04 06:55 SW 10 10.00 Fair CLR 59 41 51% 29.73 0.0
04 06:35 SW 14 10.00 Fair CLR 59 41 51% 29.72 0.0
04 06:15 SW 16 10.00 Fair CLR 59 41 51% 29.72 0.0
04 05:55 SW 16 10.00 Fair CLR 60.8 41 48% 29.73 0.0
04 05:35 SW 16 10.00 Fair CLR 60.8 41 48% 29.74 0.0
04 05:15 SW 15 10.00 Fair CLR 62.6 41 45% 29.75 0.0
04 04:55 SW 18 G 22 10.00 Fair CLR 62.6 39.2 42% 29.75 0.0
04 04:35 SW 17 G 23 10.00 Fair CLR 62.6 39.2 42% 29.76 0.0
04 04:15 S 17 G 24 10.00 Fair CLR 62.6 39.2 42% 29.76 0.0
04 03:55 S 20 G 24 10.00 Fair CLR 62.6 37.4 39% 29.76 0.0
04 03:35 S 22 G 26 10.00 Fair and Breezy CLR 64.4 37.4 37% 29.77 0.0
04 03:15 S 17 G 23 10.00 Fair CLR 62.6 37.4 39% 29.78 0.0
04 02:55 SW 15 G 20 10.00 Fair CLR 62.6 35.6 37% 29.79 0.0
04 02:35 S 15 10.00 Fair CLR 62.6 35.6 37% 29.8 0.0
04 02:15 S 16 G 21 10.00 Fair CLR 64.4 35.6 34% 29.81 0.0
04 01:55 S 16 10.00 Fair CLR 64.4 35.6 34% 29.82 0.0
04 01:35 S 14 G 20 10.00 Fair CLR 64.4 35.6 34% 29.82 0.0
04 01:15 S 15 10.00 Fair CLR 64.4 35.6 34% 29.82 0.0
04 00:55 S 15 10.00 Fair CLR 66.2 35.6 32% 29.82 0.0
04 00:35 S 16 G 21 10.00 Fair CLR 66.2 35.6 32% 29.82 0.0
04 00:15 S 17 10.00 Fair CLR 68 35.6 30% 29.83 0.0
03 23:55 S 18 G 22 10.00 Fair CLR 68 35.6 30% 29.84 0.0
03 23:35 S 18 G 23 10.00 Fair CLR 68 33.8 28% 29.84 0.0
03 23:15 S 17 G 22 10.00 Fair CLR 69.8 33.8 27% 29.84 0.0
03 22:55 S 13 10.00 Fair CLR 68 33.8 28% 29.84 0.0
03 22:35 S 10 10.00 Fair CLR 69.8 33.8 27% 29.84 0.0
03 22:15 S 14 10.00 Fair CLR 71.6 33.8 25% 29.83 0.0
03 21:55 S 13 10.00 Fair CLR 71.6 32 23% 29.83 0.0
03 21:35 S 13 10.00 Fair CLR 73.4 32 22% 29.82 0.0
03 21:15 S 10 10.00 Fair CLR 73.4 23 15% 29.82 0.0
03 20:55 SW 13 10.00 Fair CLR 77 26.6 15% 77 29.82 0.0
03 20:35 SW 13 10.00 Fair CLR 78.8 26.6 15% 78 29.82 0.0
03 20:15 SW 20 G 25 10.00 Fair CLR 80.6 26.6 14% 79 29.82 0.0
03 19:55 SW 21 G 24 10.00 Fair and Breezy CLR 80.6 26.6 14% 79 29.82 0.0
03 19:35 S 20 G 29 10.00 Fair CLR 80.6 28.4 15% 79 29.82 0.0
03 19:15 S 18 G 25 10.00 Fair CLR 82.4 28.4 14% 80 29.83 0.0
03 18:55 SW 16 G 28 10.00 Fair CLR 82.4 28.4 14% 80 29.83 0.0
03 18:35 SW 17 G 24 10.00 Fair CLR 84.2 28.4 13% 81 29.83 0.0
03 18:15 SW 16 G 28 10.00 Fair CLR 82.4 28.4 14% 80 29.84 0.0
03 17:55 SW 23 G 28 10.00 Fair and Breezy CLR 82.4 28.4 14% 80 29.85 0.0
03 17:35 SW 16 G 26 10.00 Fair CLR 84.2 28.4 13% 81 29.86 0.0
03 17:15 SW 18 G 29 10.00 Fair CLR 82.4 28.4 14% 80 29.87 0.0
03 16:55 SW 17 G 28 10.00 Fair CLR 82.4 28.4 14% 80 29.88 0.0
03 16:35 SW 22 G 29 10.00 Fair and Breezy CLR 84.2 28.4 13% 81 29.89 0.0
03 16:15 SW 17 G 26 10.00 Fair CLR 84.2 28.4 13% 81 29.91 0.0
03 15:55 SW 20 G 30 10.00 Fair CLR 82.4 28.4 14% 80 29.92 0.0
03 15:35 S 15 G 35 10.00 Fair CLR 82.4 30.2 15% 80 29.93 0.0
03 15:15 SW 17 G 28 10.00 Fair CLR 82.4 28.4 14% 80 29.95 0.0
03 14:55 SW 24 G 29 10.00 Fair and Breezy CLR 80.6 30.2 16% 79 29.96 0.0
03 14:35 SW 17 G 29 10.00 Fair CLR 80.6 30.2 16% 79 29.97 0.0
03 14:15 SW 17 G 25 10.00 Fair CLR 80.6 30.2 16% 79 29.98 0.0
03 13:55 S 16 G 25 10.00 Fair CLR 78.8 30.2 17% 78 29.99 0.0
03 13:35 SW 18 G 26 10.00 Fair CLR 78.8 30.2 17% 78 30 0.0
03 13:15 S 21 G 29 10.00 Fair and Breezy CLR 78.8 32 18% 78 30.02 0.0
03 12:55 SW 22 G 28 10.00 Fair and Breezy CLR 77 32 19% 77 30.03 0.0
03 12:35 SW 18 G 28 10.00 Fair CLR 77 32 19% 77 30.04 0.0
03 12:15 SW 18 G 30 10.00 Fair CLR 75.2 33.8 22% 76 30.06 0.0
03 11:55 W 23 G 32 10.00 Fair and Breezy CLR 73.4 32 22% 30.07 0.0
03 11:35 SW 20 G 29 10.00 Fair CLR 73.4 32 22% 30.07 0.0
03 11:15 SW 21 G 28 10.00 Fair and Breezy CLR 73.4 33.8 23% 30.08 0.0
03 10:55 W 15 G 21 10.00 Fair CLR 71.6 37.4 29% 30.09 0.0
03 10:35 SW 17 G 23 10.00 Fair CLR 69.8 37.4 31% 30.09 0.0
03 10:15 W 17 G 23 10.00 Fair CLR 68 37.4 33% 30.1 0.0
03 09:55 SW 16 G 20 10.00 Fair CLR 64.4 37.4 37% 30.1 0.0
03 09:35 SW 13 10.00 Fair CLR 62.6 39.2 42% 30.1 0.0
03 09:15 SW 16 10.00 Fair CLR 60.8 39.2 45% 30.1 0.0
03 08:55 SW 13 10.00 Fair CLR 59 37.4 45% 30.1 0.0
03 08:35 SW 14 10.00 Fair CLR 55.4 37.4 51% 30.1 0.0
03 08:15 SW 12 10.00 Fair CLR 53.6 35.6 51% 30.1 0.0
03 07:55 SW 10 10.00 Fair CLR 53.6 35.6 51% 30.09 0.0
Date Time (cdt) Wind (mph) Vis. (mi.) Weather Sky Cond. Air Dwpt Max. Min. Relative Humidity Wind Chill (°F) Heat Index (°F) altimeter (in) sea level (mb) 1 hr 3 hr 6 hr
6 hour
Temperature (ºF) Pressure Precipitation (in)